createdAt,value
2019-05-10T00:00:29.156Z,27.50
2019-05-10T00:03:17.768Z,25.07
2019-05-10T00:06:06.232Z,22.30
2019-05-10T00:08:45.395Z,19.57
2019-05-10T00:11:23.352Z,18.93
2019-05-10T00:14:12.076Z,18.23
2019-05-10T00:16:42.652Z,19.37
2019-05-10T00:19:13.220Z,19.13
2019-05-10T00:21:44.030Z,18.93
2019-05-10T00:24:14.618Z,17.33
2019-05-10T00:26:45.358Z,16.73
2019-05-10T00:29:15.929Z,20.83
2019-05-10T00:31:46.509Z,21.53
2019-05-10T00:34:17.080Z,19.73
2019-05-10T00:36:47.653Z,18.47
2019-05-10T00:39:19.555Z,22.20
2019-05-10T00:41:50.259Z,17.27
2019-05-10T00:44:20.837Z,21.60
2019-05-10T00:46:51.413Z,22.07
2019-05-10T00:49:21.995Z,22.07
2019-05-10T00:51:52.567Z,17.80
2019-05-10T00:54:24.414Z,20.17
2019-05-10T00:56:54.981Z,18.07
2019-05-10T00:59:25.580Z,17.97
2019-05-10T01:01:56.144Z,21.53
2019-05-10T01:04:26.726Z,20.47
2019-05-10T01:06:57.577Z,19.20
2019-05-10T01:09:28.197Z,20.43
2019-05-10T01:11:58.772Z,21.73
2019-05-10T01:14:29.355Z,20.03
2019-05-10T01:17:00.906Z,18.10
2019-05-10T01:19:31.464Z,24.93
2019-05-10T01:22:02.065Z,19.20
2019-05-10T01:24:33.547Z,18.90
2019-05-10T01:27:05.557Z,20.80
2019-05-10T01:29:37.808Z,21.10
2019-05-10T01:32:09.464Z,19.80
2019-05-10T01:34:40.547Z,17.70
2019-05-10T01:37:11.923Z,19.33
2019-05-10T01:39:43.326Z,21.60
2019-05-10T01:42:15.692Z,22.10
2019-05-10T01:44:46.288Z,21.30
2019-05-10T01:47:16.856Z,22.37
2019-05-10T01:49:47.434Z,19.37
2019-05-10T01:52:18.014Z,21.70
2019-05-10T01:54:48.859Z,21.83
2019-05-10T01:57:19.434Z,24.27
2019-05-10T01:59:50.021Z,18.73
2019-05-10T02:02:20.661Z,23.00
2019-05-10T02:04:51.213Z,22.30
2019-05-10T02:07:21.769Z,24.73
2019-05-10T02:09:52.410Z,26.60
2019-05-10T02:12:22.989Z,22.17
2019-05-10T02:14:53.629Z,25.17
2019-05-10T02:17:24.202Z,21.83
2019-05-10T02:19:54.798Z,20.47
2019-05-10T02:22:25.366Z,22.20
2019-05-10T02:24:55.948Z,21.00
2019-05-10T02:27:26.549Z,24.13
2019-05-10T02:29:57.120Z,24.90
2019-05-10T02:32:27.689Z,20.80
2019-05-10T02:34:58.273Z,19.17
2019-05-10T02:37:28.869Z,24.97
2019-05-10T02:39:59.528Z,65.73
2019-05-10T02:42:30.211Z,128.10
2019-05-10T02:45:00.841Z,171.83
2019-05-10T02:47:32.897Z,35.43
2019-05-10T02:50:05.107Z,35.80
2019-05-10T02:52:35.699Z,31.63
2019-05-10T02:55:07.193Z,28.00
2019-05-10T02:57:38.962Z,28.40
2019-05-10T03:00:10.148Z,27.77
2019-05-10T03:02:41.152Z,23.53
2019-05-10T03:05:12.171Z,24.90
2019-05-10T03:07:44.265Z,21.43
2019-05-10T03:10:15.225Z,21.80
2019-05-10T03:12:47.469Z,18.17
2019-05-10T03:15:18.229Z,20.63
2019-05-10T03:17:50.775Z,24.33
2019-05-10T03:20:21.356Z,23.90
2019-05-10T03:22:53.372Z,18.10
2019-05-10T03:25:24.054Z,19.63
2019-05-10T03:27:54.651Z,24.33
2019-05-10T03:30:25.216Z,18.03
2019-05-10T03:32:55.798Z,17.30
2019-05-10T03:35:26.429Z,15.77
2019-05-10T03:37:57.096Z,15.23
2019-05-10T03:40:27.818Z,13.37
2019-05-10T03:42:58.429Z,14.77
2019-05-10T03:45:28.988Z,14.53
2019-05-10T03:47:59.751Z,13.07
2019-05-10T03:50:30.329Z,12.83
2019-05-10T03:53:01.003Z,14.33
2019-05-10T03:55:32.083Z,13.07
2019-05-10T03:58:02.830Z,12.13
2019-05-10T04:00:33.759Z,11.00
2019-05-10T04:03:04.395Z,12.73
2019-05-10T04:05:36.143Z,11.40
2019-05-10T04:08:07.763Z,13.10
2019-05-10T04:10:39.292Z,12.47
2019-05-10T04:13:10.519Z,14.13
2019-05-10T04:15:42.326Z,12.23
2019-05-10T04:18:12.897Z,13.07
2019-05-10T04:20:43.479Z,11.27
2019-05-10T04:23:14.029Z,11.07
2019-05-10T04:25:44.636Z,11.87
2019-05-10T04:28:15.248Z,10.50
2019-05-10T04:30:46.830Z,10.27
2019-05-10T04:33:17.407Z,12.10
2019-05-10T04:35:48.935Z,12.87
2019-05-10T04:38:19.508Z,11.37
2019-05-10T04:40:50.087Z,11.43
2019-05-10T04:43:20.697Z,11.43
2019-05-10T04:45:51.710Z,14.90
2019-05-10T04:48:22.326Z,15.70
2019-05-10T04:50:52.978Z,16.93
2019-05-10T04:53:23.628Z,16.30
2019-05-10T04:55:54.212Z,16.13
2019-05-10T04:58:24.764Z,19.53
2019-05-10T05:00:55.489Z,14.70
2019-05-10T05:03:26.150Z,15.20
2019-05-10T05:05:56.712Z,13.17
2019-05-10T05:08:28.270Z,14.40
2019-05-10T05:10:58.846Z,11.77
2019-05-10T05:13:29.438Z,17.90
2019-05-10T05:16:00.029Z,12.50
2019-05-10T05:18:30.750Z,13.73
2019-05-10T05:21:01.401Z,17.03
2019-05-10T05:23:32.008Z,13.10
2019-05-10T05:26:02.580Z,11.33
2019-05-10T05:28:33.164Z,13.27
2019-05-10T05:31:03.723Z,11.07
2019-05-10T05:33:35.734Z,12.57
2019-05-10T05:36:07.603Z,12.40
2019-05-10T05:38:40.361Z,13.93
2019-05-10T05:41:10.491Z,14.30
2019-05-10T05:43:45.675Z,20.93
2019-05-10T05:46:14.667Z,14.07
2019-05-10T05:48:45.508Z,13.63
2019-05-10T05:51:16.092Z,13.27
2019-05-10T05:53:46.724Z,13.50
2019-05-10T05:56:17.328Z,14.30
2019-05-10T05:58:47.899Z,14.80
2019-05-10T06:01:26.721Z,12.23
2019-05-10T06:03:50.884Z,13.70
2019-05-10T06:06:23.488Z,15.37
2019-05-10T06:08:54.583Z,11.63
2019-05-10T06:11:29.646Z,13.63
2019-05-10T06:14:03.804Z,15.10
2019-05-10T06:16:30.975Z,19.13
2019-05-10T06:19:01.544Z,14.70
2019-05-10T06:21:32.200Z,18.27
2019-05-10T06:24:07.439Z,16.73
2019-05-10T06:26:35.995Z,15.40
2019-05-10T06:29:16.175Z,16.73
2019-05-10T06:31:39.184Z,14.53
2019-05-10T06:34:10.279Z,17.87
2019-05-10T06:36:41.485Z,17.50
2019-05-10T06:39:12.066Z,19.13
2019-05-10T06:41:42.649Z,19.30
2019-05-10T06:44:13.228Z,17.63
2019-05-10T06:46:44.252Z,20.33
2019-05-10T06:49:16.796Z,18.53
2019-05-10T06:51:49.026Z,19.00
2019-05-10T06:54:19.936Z,18.20
2019-05-10T06:56:50.523Z,19.60
2019-05-10T06:59:25.051Z,19.90
2019-05-10T07:01:53.526Z,18.10
2019-05-10T07:04:24.097Z,20.90
2019-05-10T07:06:55.758Z,22.53
2019-05-10T07:09:26.384Z,19.67
2019-05-10T07:11:57.818Z,19.93
2019-05-10T07:14:28.611Z,17.23
2019-05-10T07:17:02.608Z,20.57
2019-05-10T07:19:34.925Z,24.60
2019-05-10T07:22:06.819Z,26.40
2019-05-10T07:24:37.579Z,24.37
2019-05-10T07:27:08.167Z,23.40
2019-05-10T07:29:43.699Z,25.07
2019-05-10T07:32:16.306Z,23.53
2019-05-10T07:34:42.434Z,24.07
2019-05-10T07:37:12.798Z,25.27
2019-05-10T07:39:43.386Z,23.30
2019-05-10T07:42:14.427Z,21.60
2019-05-10T07:44:46.700Z,21.87
2019-05-10T07:47:17.280Z,22.87
2019-05-10T07:49:47.847Z,21.03
2019-05-10T07:52:18.443Z,22.13
2019-05-10T07:54:49.168Z,24.57
2019-05-10T07:57:24.810Z,22.17
2019-05-10T07:59:57.718Z,22.77
2019-05-10T08:02:26.711Z,23.10
2019-05-10T08:04:58.475Z,23.62
2019-05-10T08:07:29.484Z,21.68
2019-05-10T08:10:00.153Z,20.88
2019-05-10T08:12:35.127Z,19.90
2019-05-10T08:15:03.349Z,20.57
2019-05-10T08:17:35.314Z,23.22
2019-05-10T08:20:14.537Z,21.33
2019-05-10T08:22:44.464Z,27.75
2019-05-10T08:25:15.350Z,26.05
2019-05-10T08:27:50.519Z,18.62
2019-05-10T08:30:35.949Z,21.40
2019-05-10T08:33:09.922Z,20.20
2019-05-10T08:35:43.417Z,21.87
2019-05-10T08:38:12.970Z,19.98
2019-05-10T08:40:44.826Z,21.37
2019-05-10T08:43:16.807Z,20.35
2019-05-10T08:45:49.702Z,18.85
2019-05-10T08:48:23.154Z,20.77
2019-05-10T08:50:57.482Z,21.25
2019-05-10T08:53:25.605Z,19.40
2019-05-10T08:55:58.748Z,18.57
2019-05-10T08:58:37.004Z,17.90
2019-05-10T09:01:16.370Z,14.70
2019-05-10T09:03:33.283Z,14.20
2019-05-10T09:06:11.825Z,16.00
2019-05-10T09:08:36.129Z,14.23
2019-05-10T09:11:07.173Z,12.00
2019-05-10T09:13:41.448Z,13.62
2019-05-10T09:16:10.148Z,12.40
2019-05-10T09:18:46.769Z,14.90
2019-05-10T09:21:14.340Z,11.20
2019-05-10T09:23:52.787Z,11.43
2019-05-10T09:26:18.376Z,36.95
2019-05-10T09:28:55.560Z,11.25
2019-05-10T09:31:25.251Z,15.80
2019-05-10T09:33:54.353Z,10.55
2019-05-10T09:36:30.973Z,11.80
2019-05-10T09:38:58.614Z,12.28
2019-05-10T09:41:33.818Z,11.65
2019-05-10T09:44:03.007Z,12.90
2019-05-10T09:46:33.646Z,10.88
2019-05-10T09:49:14.264Z,12.75
2019-05-10T09:51:37.293Z,14.95
2019-05-10T09:54:18.143Z,13.60
2019-05-10T09:56:51.998Z,9.57
2019-05-10T09:59:20.854Z,10.13
2019-05-10T10:05:26.169Z,5.80
2019-05-10T10:07:57.833Z,6.40
2019-05-10T10:10:31.925Z,6.67
2019-05-10T10:13:11.413Z,9.43
2019-05-10T10:15:34.462Z,5.80
2019-05-10T10:18:05.093Z,6.17
2019-05-10T10:20:43.479Z,7.40
2019-05-10T10:23:08.274Z,8.80
2019-05-10T10:25:40.629Z,7.73
2019-05-10T10:28:16.995Z,7.93
2019-05-10T10:30:43.621Z,10.50
2019-05-10T10:33:20.964Z,9.33
2019-05-10T10:35:48.080Z,8.00
2019-05-10T10:38:18.930Z,10.03
2019-05-10T10:40:49.818Z,7.17
2019-05-10T10:43:20.398Z,6.63
2019-05-10T10:45:51.073Z,9.37
2019-05-10T10:48:23.880Z,9.73
2019-05-10T10:50:57.925Z,9.00
2019-05-10T10:53:28.723Z,9.00
2019-05-10T10:56:03.874Z,6.90
2019-05-10T10:58:33.685Z,6.63
2019-05-10T11:01:10.650Z,7.60
2019-05-10T11:03:36.560Z,9.00
2019-05-10T11:06:07.245Z,7.73
2019-05-10T11:08:37.829Z,7.17
2019-05-10T11:11:10.533Z,7.37
2019-05-10T11:13:45.618Z,8.53
2019-05-10T11:16:15.792Z,7.30
2019-05-10T11:18:46.309Z,7.90
2019-05-10T11:21:16.885Z,7.37
2019-05-10T11:23:49.927Z,11.50
2019-05-10T11:26:21.771Z,7.97
2019-05-10T11:28:52.470Z,11.17
2019-05-10T11:31:23.057Z,8.17
2019-05-10T11:33:58.442Z,6.07
2019-05-10T11:36:26.880Z,5.10
2019-05-10T11:38:58.774Z,7.33
2019-05-10T11:41:31.423Z,4.13
2019-05-10T11:44:05.497Z,5.87
2019-05-10T11:46:34.094Z,5.27
2019-05-10T11:49:04.692Z,5.97
2019-05-10T11:51:35.301Z,6.13
2019-05-10T11:54:05.946Z,5.03
2019-05-10T11:56:36.533Z,4.20
2019-05-10T11:59:07.126Z,3.60
2019-05-10T12:01:41.700Z,6.23
2019-05-10T12:04:19.725Z,4.03
2019-05-10T12:06:50.023Z,4.23
2019-05-10T12:09:14.907Z,3.40
2019-05-10T12:11:51.688Z,3.40
2019-05-10T12:14:17.866Z,5.43
2019-05-10T12:16:48.428Z,7.20
2019-05-10T12:19:21.149Z,6.93
2019-05-10T12:21:52.532Z,7.27
2019-05-10T12:26:27.160Z,6.27
2019-05-10T12:29:28.048Z,5.27
2019-05-10T12:31:58.832Z,5.27
2019-05-10T12:34:31.112Z,5.13
2019-05-10T12:37:03.854Z,3.53
2019-05-10T12:39:34.123Z,3.80
2019-05-10T12:42:05.020Z,6.23
2019-05-10T12:44:38.892Z,7.53
2019-05-10T12:47:11.318Z,5.43
2019-05-10T12:49:42.165Z,3.70
2019-05-10T12:52:14.352Z,3.60
2019-05-10T12:54:44.991Z,3.83
2019-05-10T12:57:16.345Z,5.77
2019-05-10T12:59:47.263Z,6.20
2019-05-10T13:02:17.889Z,10.30
2019-05-10T13:04:52.606Z,5.13
2019-05-10T13:07:22.318Z,3.37
2019-05-10T13:10:02.062Z,4.50
2019-05-10T13:12:25.268Z,3.53
2019-05-10T13:14:58.109Z,3.10
2019-05-10T13:17:28.684Z,6.77
2019-05-10T13:20:00.597Z,5.20
2019-05-10T13:22:36.732Z,5.20
2019-05-10T13:25:06.879Z,6.27
2019-05-10T13:27:37.936Z,3.87
2019-05-10T13:30:09.882Z,5.50
2019-05-10T13:32:40.458Z,2.57
2019-05-10T13:35:11.180Z,3.33
2019-05-10T13:37:41.787Z,5.10
2019-05-10T13:40:13.370Z,4.73
2019-05-10T13:42:46.065Z,2.97
2019-05-10T13:45:16.452Z,4.50
2019-05-10T13:47:47.424Z,3.10
2019-05-10T13:50:17.992Z,5.67
2019-05-10T13:52:48.597Z,5.53
2019-05-10T13:55:19.281Z,3.53
2019-05-10T13:57:49.851Z,5.03
2019-05-10T14:00:21.063Z,3.20
2019-05-10T14:02:51.658Z,2.40
2019-05-10T14:05:22.261Z,3.13
2019-05-10T14:07:53.369Z,4.67
2019-05-10T14:10:25.544Z,2.50
2019-05-10T14:13:02.176Z,4.43
2019-05-10T14:15:28.910Z,3.00
2019-05-10T14:17:59.496Z,1.80
2019-05-10T14:20:30.418Z,2.57
2019-05-10T14:23:00.993Z,4.37
2019-05-10T14:25:36.496Z,3.53
2019-05-10T14:28:09.602Z,7.43
2019-05-10T14:30:36.120Z,4.30
2019-05-10T14:33:08.655Z,3.70
2019-05-10T14:35:40.525Z,5.33
2019-05-10T14:38:12.099Z,5.00
2019-05-10T14:40:42.711Z,4.33
2019-05-10T14:43:13.298Z,3.20
2019-05-10T14:45:45.018Z,3.33
2019-05-10T14:48:15.620Z,2.17
2019-05-10T14:50:47.298Z,2.57
2019-05-10T14:53:19.887Z,2.33
2019-05-10T14:55:50.231Z,2.00
2019-05-10T14:58:20.875Z,2.20
2019-05-10T15:00:51.479Z,6.67
2019-05-10T15:03:22.129Z,3.40
2019-05-10T15:05:54.979Z,2.10
2019-05-10T15:08:25.335Z,1.73
2019-05-10T15:10:57.328Z,2.17
2019-05-10T15:13:28.478Z,2.00
2019-05-10T15:15:59.712Z,2.20
2019-05-10T15:18:30.282Z,2.60
2019-05-10T15:21:01.132Z,5.67
2019-05-10T15:23:31.898Z,4.77
2019-05-10T15:26:10.691Z,2.50
2019-05-10T15:28:40.327Z,2.70
2019-05-10T15:31:07.571Z,5.67
2019-05-10T15:33:38.145Z,2.93
2019-05-10T15:36:08.906Z,4.03
2019-05-10T15:38:49.825Z,2.93
2019-05-10T15:41:17.108Z,1.50
2019-05-10T15:43:48.871Z,1.10
2019-05-10T15:46:18.004Z,4.17
2019-05-10T15:48:48.584Z,1.07
2019-05-10T15:51:34.082Z,1.23
2019-05-10T15:54:03.786Z,1.20
2019-05-10T15:56:25.511Z,5.53
2019-05-10T15:58:56.483Z,2.40
2019-05-10T16:01:29.118Z,2.63
2019-05-10T16:03:59.409Z,1.50
2019-05-10T16:06:32.424Z,2.93
2019-05-10T16:09:02.887Z,1.30
2019-05-10T16:11:34.841Z,2.17
2019-05-10T16:14:06.367Z,1.53
2019-05-10T16:16:39.693Z,3.10
2019-05-10T16:19:12.918Z,3.63
2019-05-10T16:21:46.764Z,9.80
2019-05-10T16:24:25.372Z,13.03
2019-05-10T16:26:47.373Z,9.87
2019-05-10T16:29:17.972Z,3.90
2019-05-10T16:31:48.620Z,6.97
2019-05-10T16:34:19.225Z,4.93
2019-05-10T16:36:49.780Z,5.30
2019-05-10T16:39:20.374Z,6.43
2019-05-10T16:41:51.104Z,7.93
2019-05-10T16:44:22.336Z,8.03
2019-05-10T16:46:53.666Z,7.83
2019-05-10T16:49:24.434Z,6.13
2019-05-10T16:51:55.187Z,6.87
2019-05-10T16:54:27.366Z,5.53
2019-05-10T16:57:00.105Z,10.10
2019-05-10T16:59:35.064Z,7.10
2019-05-10T17:02:06.558Z,7.73
2019-05-10T17:04:39.596Z,5.67
2019-05-10T17:07:13.058Z,11.27
2019-05-10T17:09:42.190Z,12.43
2019-05-10T17:12:12.947Z,7.23
2019-05-10T17:14:44.293Z,5.50
2019-05-10T17:17:14.972Z,6.37
2019-05-10T17:19:46.364Z,4.30
2019-05-10T17:22:16.957Z,4.03
2019-05-10T17:24:47.528Z,6.53
2019-05-10T17:27:18.095Z,6.23
2019-05-10T17:29:49.762Z,5.40
2019-05-10T17:32:24.728Z,5.10
2019-05-10T17:34:59.329Z,4.73
2019-05-10T17:37:29.971Z,3.43
2019-05-10T17:40:04.603Z,6.00
2019-05-10T17:42:35.621Z,4.90
2019-05-10T17:45:08.771Z,5.97
2019-05-10T17:47:39.349Z,5.40
2019-05-10T17:50:10.628Z,4.60
2019-05-10T17:52:41.417Z,4.13
2019-05-10T17:55:16.887Z,5.23
2019-05-10T17:57:48.768Z,4.17
2019-05-10T18:00:17.260Z,4.37
2019-05-10T18:02:47.863Z,4.63
2019-05-10T18:05:19.545Z,4.40
2019-05-10T18:07:51.630Z,5.50
2019-05-10T18:10:22.293Z,5.47
2019-05-10T18:12:57.428Z,3.50
2019-05-10T18:15:27.799Z,4.53
2019-05-10T18:18:02.455Z,5.40
2019-05-10T18:20:41.152Z,3.97
2019-05-10T18:23:06.568Z,4.80
2019-05-10T18:25:37.294Z,5.73
2019-05-10T18:28:07.905Z,8.77
2019-05-10T18:30:38.592Z,7.23
2019-05-10T18:33:12.324Z,6.57
2019-05-10T18:35:47.558Z,5.43
2019-05-10T18:38:16.004Z,5.43
2019-05-10T18:40:46.614Z,6.77
2019-05-10T18:43:17.196Z,9.23
2019-05-10T18:45:47.800Z,10.57
2019-05-10T18:48:18.895Z,9.77
2019-05-10T18:50:50.735Z,9.30
2019-05-10T18:53:21.304Z,6.47
2019-05-10T18:55:52.091Z,9.60
2019-05-10T18:58:28.225Z,6.63
2019-05-10T19:01:00.652Z,12.30
2019-05-10T19:03:27.957Z,8.57
2019-05-10T19:06:04.218Z,12.30
2019-05-10T19:08:33.779Z,17.03
2019-05-10T19:11:05.001Z,8.17
2019-05-10T19:13:46.640Z,9.07
2019-05-10T19:16:08.359Z,7.20
2019-05-10T19:18:39.043Z,7.03
2019-05-10T19:21:09.945Z,6.40
2019-05-10T19:23:40.629Z,7.73
2019-05-10T19:26:12.773Z,7.70
2019-05-10T19:28:47.015Z,9.53
2019-05-10T19:31:17.614Z,10.10
2019-05-10T19:33:48.223Z,9.33
2019-05-10T19:36:29.433Z,7.93
2019-05-10T19:39:00.427Z,7.20
2019-05-10T19:41:31.465Z,7.67
2019-05-10T19:44:04.438Z,8.20
2019-05-10T19:46:39.319Z,9.10
2019-05-10T19:49:13.388Z,9.47
2019-05-10T19:51:42.331Z,8.47
2019-05-10T19:54:13.530Z,10.03
2019-05-10T19:56:45.183Z,7.87
2019-05-10T19:59:17.076Z,11.37
2019-05-10T20:01:47.726Z,12.10
2019-05-10T20:04:18.316Z,9.87
2019-05-10T20:06:48.891Z,10.63
2019-05-10T20:09:22.075Z,9.57
2019-05-10T20:11:53.298Z,9.53
2019-05-10T20:14:25.075Z,8.10
2019-05-10T20:16:55.769Z,10.07
2019-05-10T20:19:26.842Z,10.27
2019-05-10T20:21:57.591Z,12.57
2019-05-10T20:24:28.494Z,10.77
2019-05-10T20:26:59.133Z,12.70
2019-05-10T20:29:30.346Z,11.17
2019-05-10T20:32:01.189Z,9.67
2019-05-10T20:34:31.729Z,10.93
2019-05-10T20:37:02.513Z,10.60
2019-05-10T20:39:35.400Z,18.07
2019-05-10T20:42:06.021Z,12.23
2019-05-10T20:44:36.608Z,13.67
2019-05-10T20:47:09.646Z,13.53
2019-05-10T20:49:40.358Z,20.10
2019-05-10T20:52:11.074Z,23.10
2019-05-10T20:54:41.662Z,18.90
2019-05-10T20:57:13.781Z,27.53
2019-05-10T20:59:44.436Z,27.00
2019-05-10T21:02:15.561Z,25.87
2019-05-10T21:04:46.695Z,32.53
2019-05-10T21:07:17.541Z,21.90
2019-05-10T21:09:48.838Z,17.30
2019-05-10T21:12:20.132Z,14.97
2019-05-10T21:14:50.790Z,18.43
2019-05-10T21:17:21.566Z,19.47
2019-05-10T21:19:52.549Z,17.27
2019-05-10T21:22:23.304Z,21.57
2019-05-10T21:24:54.160Z,19.17
2019-05-10T21:27:25.192Z,24.13
2019-05-10T21:29:56.212Z,20.83
2019-05-10T21:32:26.818Z,23.53
2019-05-10T21:34:57.224Z,22.53
2019-05-10T21:37:27.823Z,20.83
2019-05-10T21:39:58.398Z,17.30
2019-05-10T21:42:29.185Z,16.37
2019-05-10T21:44:59.767Z,17.47
2019-05-10T21:47:30.453Z,14.90
2019-05-10T21:50:01.041Z,16.73
2019-05-10T21:52:31.716Z,13.23
2019-05-10T21:55:02.301Z,14.47
2019-05-10T21:57:32.875Z,14.37
2019-05-10T22:00:04.453Z,15.23
2019-05-10T22:02:36.724Z,11.57
2019-05-10T22:05:07.636Z,12.70
2019-05-10T22:07:38.294Z,15.03
2019-05-10T22:10:09.312Z,12.13
2019-05-10T22:12:39.895Z,12.20
2019-05-10T22:15:10.721Z,13.70
2019-05-10T22:17:41.301Z,13.50
2019-05-10T22:20:30.380Z,15.90
2019-05-10T22:23:00.977Z,17.63
2019-05-10T22:25:31.655Z,19.17
2019-05-10T22:28:02.234Z,14.10
2019-05-10T22:30:33.918Z,14.07
2019-05-10T22:33:04.656Z,12.97
2019-05-10T22:35:35.230Z,22.10
2019-05-10T22:38:06.101Z,12.67
2019-05-10T22:40:36.681Z,13.50
2019-05-10T22:43:09.096Z,20.37
2019-05-10T22:45:39.651Z,13.03
2019-05-10T22:48:10.230Z,11.07
2019-05-10T22:50:40.794Z,15.47
2019-05-10T22:53:11.364Z,12.20
2019-05-10T22:55:42.054Z,13.17
2019-05-10T22:58:12.806Z,17.10
2019-05-10T23:00:43.543Z,14.17
2019-05-10T23:03:14.096Z,13.00
2019-05-10T23:05:44.779Z,14.37
2019-05-10T23:08:15.639Z,13.47
2019-05-10T23:10:46.307Z,14.63
2019-05-10T23:13:17.262Z,11.23
2019-05-10T23:15:47.818Z,11.73
2019-05-10T23:18:18.370Z,12.30
2019-05-10T23:20:49.029Z,10.40
2019-05-10T23:23:21.119Z,8.23
2019-05-10T23:25:51.777Z,12.03
2019-05-10T23:28:22.551Z,11.03
2019-05-10T23:30:53.180Z,9.67
2019-05-10T23:33:23.745Z,9.13
2019-05-10T23:35:54.327Z,10.90
2019-05-10T23:38:24.997Z,11.90
2019-05-10T23:40:56.575Z,11.13
2019-05-10T23:43:27.155Z,9.10
2019-05-10T23:45:57.754Z,9.03
2019-05-10T23:48:28.336Z,9.40
2019-05-10T23:50:58.951Z,9.87
2019-05-10T23:53:29.522Z,8.47
2019-05-10T23:56:00.096Z,9.20
2019-05-10T23:58:30.682Z,8.13
